Airfield :
LOGIN :

Register | Disclaimer

   EN    FR    IT 

 










Legend :    VFR   Marginal VFR   IFR   Intensive IFR   Very Intensive IFR
Visi :
Ceiling :
>= 8 km
>= 3000ft
5 to 8 km
1000 to 3000 ft
1500m to 5 km
500 to 1000 ft
800 to 1500m
200 to 500 ft
< 800m
< 200 ft
Symbols :   Thunderstorms  Fog  Heavy snow  Heavy precipitations  Wind > 20 kt
SIGMETs :     Misc.  Thunderstorms  Icing  Turbulence  Mountain Waves  Volcanic Ashes







- Airport Elevation : 274 ft
- IATA code : PUY


LDPL - Pula

CURRENT METAR :
  • 230000Z AUTO 10005KT 9999 OVC038/// 09/07 Q1017

EXPIRED METARs :
  • 222330Z AUTO 07004KT 9999 SCT007/// OVC040/// 08/07 Q1018
  • 222300Z AUTO 09006KT 9999 OVC040/// 08/06 Q1018
  • 222230Z AUTO 06002KT 9999 FEW008/// OVC040/// 08/06 Q1018
  • 222200Z 09004KT 9999 SCT007 OVC040 08/06 Q1018
  • 222130Z 06003KT 020V090 8000 SCT007 OVC040 08/06 Q1018

TAF TAF LDPL
Valid from the 23 at 00:00 until the 24 at 00:00 UTC


222325Z 2300/2324 VRB02KT 9999 BKN035 TX14/2313Z TN05/2305Z
PROB40 2300/2309 2000 BR
PROB30
TEMPO 2300/2307 0400 FG BKN002
BECMG 2308/2310 23008KT
BECMG 2322/2324 27014KT
No reported NOTAMs for that airfield.



MET'MAP, your aeronautical weather chart ! - Copyright ORBIFLY December 2007 - Disclaimer

ORBIFLY MET'MAP TEAM :

Programming & Development : Alexandra Zaïnal
Concept & Development : Baudouin d'Aumeries
Co-Development & Prog : Marc-Olivier Méhu
Technical & hardware support : Manuel Goepfert

Contact : metmap@orbifly.com




SOURCES & CREDITS :

   NOAA